createdAt,value
2018-09-24T00:01:19.694Z,9.59
2018-09-24T00:03:47.909Z,9.56
2018-09-24T00:06:16.049Z,9.56
2018-09-24T00:08:44.259Z,9.57
2018-09-24T00:11:12.498Z,9.59
2018-09-24T00:13:40.725Z,9.61
2018-09-24T00:16:08.943Z,9.63
2018-09-24T00:18:37.219Z,9.60
2018-09-24T00:21:05.399Z,9.56
2018-09-24T00:23:33.712Z,9.53
2018-09-24T00:26:01.883Z,9.55
2018-09-24T00:28:31.166Z,9.59
2018-09-24T00:30:59.431Z,9.57
2018-09-24T00:33:27.624Z,9.63
2018-09-24T00:35:55.874Z,9.57
2018-09-24T00:38:24.211Z,9.62
2018-09-24T00:40:52.519Z,9.51
2018-09-24T00:43:20.652Z,9.47
2018-09-24T00:45:48.878Z,9.58
2018-09-24T00:48:17.115Z,9.55
2018-09-24T00:50:45.386Z,9.57
2018-09-24T00:53:13.570Z,9.54
2018-09-24T00:55:41.850Z,9.41
2018-09-24T00:58:10.047Z,9.35
2018-09-24T01:00:38.304Z,9.44
2018-09-24T01:03:06.720Z,9.42
2018-09-24T01:05:34.853Z,9.41
2018-09-24T01:08:03.102Z,9.31
2018-09-24T01:10:31.274Z,9.27
2018-09-24T01:12:59.538Z,9.26
2018-09-24T01:15:27.750Z,9.23
2018-09-24T01:17:55.956Z,9.27
2018-09-24T01:20:24.232Z,9.28
2018-09-24T01:22:52.356Z,9.26
2018-09-24T01:25:20.520Z,9.26
2018-09-24T01:27:48.756Z,9.29
2018-09-24T01:30:17.060Z,9.35
2018-09-24T01:32:45.185Z,9.34
2018-09-24T01:35:13.562Z,9.35
2018-09-24T01:37:41.834Z,9.28
2018-09-24T01:40:10.011Z,9.33
2018-09-24T01:42:38.207Z,9.25
2018-09-24T01:45:06.431Z,9.22
2018-09-24T01:47:34.558Z,9.30
2018-09-24T01:50:02.786Z,9.20
2018-09-24T01:52:30.983Z,9.25
2018-09-24T01:54:59.118Z,9.26
2018-09-24T01:57:34.087Z,9.18
2018-09-24T02:00:02.188Z,9.23
2018-09-24T02:02:30.389Z,9.22
2018-09-24T02:04:58.607Z,9.19
2018-09-24T02:07:26.838Z,9.17
2018-09-24T02:09:55.031Z,9.18
2018-09-24T02:12:23.340Z,9.19
2018-09-24T02:14:51.465Z,9.14
2018-09-24T02:17:21.655Z,9.16
2018-09-24T02:19:51.110Z,9.20
2018-09-24T02:22:25.593Z,9.15
2018-09-24T02:24:54.265Z,9.05
2018-09-24T02:27:22.588Z,9.13
2018-09-24T02:29:50.719Z,9.01
2018-09-24T02:32:18.873Z,9.00
2018-09-24T02:34:47.676Z,9.02
2018-09-24T02:37:16.988Z,9.00
2018-09-24T02:39:45.123Z,9.00
2018-09-24T02:42:13.283Z,8.97
2018-09-24T02:44:41.521Z,8.93
2018-09-24T02:47:09.732Z,9.00
2018-09-24T02:49:38.525Z,8.99
2018-09-24T02:52:06.693Z,8.88
2018-09-24T02:54:35.827Z,8.95
2018-09-24T02:57:04.108Z,8.92
2018-09-24T02:59:32.266Z,8.89
2018-09-24T03:02:00.394Z,8.88
2018-09-24T03:04:28.516Z,8.86
2018-09-24T03:06:56.655Z,8.84
2018-09-24T03:09:25.040Z,8.83
2018-09-24T03:11:53.180Z,8.79
2018-09-24T03:14:25.782Z,8.80
2018-09-24T03:16:54.005Z,8.77
2018-09-24T03:19:22.268Z,8.75
2018-09-24T03:21:50.409Z,8.69
2018-09-24T03:24:18.557Z,8.68
2018-09-24T03:26:46.735Z,8.75
2018-09-24T03:29:21.455Z,8.71
2018-09-24T03:31:49.654Z,8.69
2018-09-24T03:34:18.723Z,8.69
2018-09-24T03:36:47.497Z,8.63
2018-09-24T03:39:15.638Z,8.68
2018-09-24T03:41:44.257Z,8.71
2018-09-24T03:44:12.541Z,8.68
2018-09-24T03:46:41.211Z,8.66
2018-09-24T03:49:09.790Z,8.60
2018-09-24T03:51:38.083Z,8.57
2018-09-24T03:54:06.547Z,8.60
2018-09-24T03:56:34.728Z,8.57
2018-09-24T03:59:03.784Z,8.52
2018-09-24T04:01:31.788Z,8.53
2018-09-24T04:04:05.468Z,8.55
2018-09-24T04:06:39.356Z,8.51
2018-09-24T04:09:13.919Z,8.49
2018-09-24T04:11:47.890Z,8.58
2018-09-24T04:14:21.440Z,8.62
2018-09-24T04:16:55.502Z,8.57
2018-09-24T04:19:29.465Z,8.59
2018-09-24T04:22:03.130Z,8.52
2018-09-24T04:24:36.667Z,8.49
2018-09-24T04:27:10.387Z,8.51
2018-09-24T04:29:43.922Z,8.54
2018-09-24T04:32:17.440Z,8.53
2018-09-24T04:34:50.924Z,8.46
2018-09-24T04:37:24.352Z,8.48
2018-09-24T04:39:57.820Z,8.39
2018-09-24T04:42:31.316Z,8.45
2018-09-24T04:45:04.908Z,8.37
2018-09-24T04:47:38.518Z,8.35
2018-09-24T04:50:12.258Z,8.38
2018-09-24T04:52:45.719Z,8.40
2018-09-24T04:55:19.192Z,8.38
2018-09-24T04:57:52.692Z,8.42
2018-09-24T05:00:26.326Z,8.39
2018-09-24T05:02:59.846Z,8.44
2018-09-24T05:05:33.596Z,8.41
2018-09-24T05:08:07.090Z,8.45
2018-09-24T05:10:40.563Z,8.40
2018-09-24T05:13:14.030Z,8.45
2018-09-24T05:15:47.514Z,8.45
2018-09-24T05:18:21.704Z,8.43
2018-09-24T05:20:55.178Z,8.46
2018-09-24T05:23:28.734Z,8.53
2018-09-24T05:26:02.228Z,8.57
2018-09-24T05:28:42.589Z,8.55
2018-09-24T05:31:16.202Z,8.58
2018-09-24T05:33:50.340Z,8.62
2018-09-24T05:36:24.885Z,8.69
2018-09-24T05:38:58.414Z,8.72
2018-09-24T05:41:32.686Z,8.68
2018-09-24T05:44:06.954Z,8.71
2018-09-24T05:46:41.645Z,8.73
2018-09-24T05:49:15.350Z,8.75
2018-09-24T05:51:48.957Z,8.83
2018-09-24T05:54:22.538Z,8.89
2018-09-24T05:56:56.263Z,8.76
2018-09-24T05:59:30.730Z,8.89
2018-09-24T06:02:04.371Z,8.85
2018-09-24T06:04:37.882Z,8.83
2018-09-24T06:07:11.662Z,8.89
2018-09-24T06:09:45.260Z,8.99
2018-09-24T06:12:19.095Z,9.01
2018-09-24T06:14:54.154Z,8.95
2018-09-24T06:17:27.829Z,9.05
2018-09-24T06:20:01.396Z,9.11
2018-09-24T06:22:35.291Z,9.19
2018-09-24T06:25:08.735Z,9.25
2018-09-24T06:27:42.236Z,9.30
2018-09-24T06:30:15.970Z,9.27
2018-09-24T06:32:49.570Z,9.40
2018-09-24T06:35:23.219Z,9.47
2018-09-24T06:37:57.183Z,9.56
2018-09-24T06:40:30.651Z,9.50
2018-09-24T06:43:04.173Z,9.54
2018-09-24T06:45:37.697Z,9.50
2018-09-24T06:48:11.240Z,9.55
2018-09-24T06:50:46.431Z,9.56
2018-09-24T06:53:19.940Z,9.66
2018-09-24T06:55:53.634Z,9.75
2018-09-24T06:58:27.377Z,9.92
2018-09-24T07:01:00.983Z,10.03
2018-09-24T07:03:34.573Z,10.05
2018-09-24T07:06:08.446Z,10.17
2018-09-24T07:08:41.954Z,10.26
2018-09-24T07:11:15.545Z,10.13
2018-09-24T07:13:49.189Z,10.04
2018-09-24T07:16:22.657Z,10.05
2018-09-24T07:18:56.728Z,10.21
2018-09-24T07:21:30.467Z,10.22
2018-09-24T07:24:04.066Z,10.15
2018-09-24T07:26:37.803Z,10.21
2018-09-24T07:29:11.677Z,10.37
2018-09-24T07:31:45.391Z,10.41
2018-09-24T07:34:19.100Z,10.49
2018-09-24T07:36:53.371Z,10.53
2018-09-24T07:39:26.918Z,10.53
2018-09-24T07:42:00.437Z,10.65
2018-09-24T07:44:34.035Z,10.79
2018-09-24T07:47:07.543Z,10.95
2018-09-24T07:49:41.045Z,10.89
2018-09-24T07:52:14.634Z,11.00
2018-09-24T07:54:48.133Z,11.02
2018-09-24T07:57:21.606Z,10.87
2018-09-24T07:59:55.416Z,11.12
2018-09-24T08:02:28.925Z,11.21
2018-09-24T08:05:02.474Z,11.23
2018-09-24T08:07:36.139Z,11.32
2018-09-24T08:10:09.716Z,11.30
2018-09-24T08:12:43.477Z,11.53
2018-09-24T08:15:17.250Z,11.24
2018-09-24T08:17:50.843Z,11.33
2018-09-24T08:20:24.305Z,11.45
2018-09-24T08:22:57.786Z,11.28
2018-09-24T08:25:31.332Z,11.42
2018-09-24T08:28:04.949Z,11.53
2018-09-24T08:30:38.814Z,11.51
2018-09-24T08:33:12.491Z,11.67
2018-09-24T08:35:45.960Z,11.96
2018-09-24T08:38:19.796Z,11.79
2018-09-24T08:40:54.571Z,11.72
2018-09-24T08:43:28.135Z,11.63
2018-09-24T08:46:01.744Z,11.79
2018-09-24T08:48:35.209Z,11.93
2018-09-24T08:51:08.709Z,12.13
2018-09-24T08:53:42.497Z,12.14
2018-09-24T08:56:16.152Z,12.23
2018-09-24T08:58:49.577Z,12.27
2018-09-24T09:01:23.011Z,12.40
2018-09-24T09:03:56.472Z,12.31
2018-09-24T09:06:29.999Z,12.41
2018-09-24T09:09:04.189Z,12.40
2018-09-24T09:11:37.918Z,12.64
2018-09-24T09:14:11.765Z,12.80
2018-09-24T09:16:45.192Z,12.70
2018-09-24T09:19:18.694Z,12.91
2018-09-24T09:21:52.223Z,12.77
2018-09-24T09:24:26.183Z,12.64
2018-09-24T09:26:59.570Z,12.58
2018-09-24T09:29:33.498Z,12.62
2018-09-24T09:32:06.845Z,12.74
2018-09-24T09:34:40.262Z,12.48
2018-09-24T09:37:13.735Z,12.47
2018-09-24T09:39:47.221Z,12.72
2018-09-24T09:42:20.957Z,12.95
2018-09-24T09:44:55.237Z,13.15
2018-09-24T09:47:28.780Z,13.14
2018-09-24T09:50:02.492Z,13.16
2018-09-24T09:52:35.928Z,13.10
2018-09-24T09:55:09.481Z,12.90
2018-09-24T09:57:43.047Z,12.63
2018-09-24T10:00:16.599Z,12.83
2018-09-24T10:02:50.138Z,12.76
2018-09-24T10:05:25.227Z,12.87
2018-09-24T10:07:58.877Z,12.93
2018-09-24T10:10:33.121Z,12.73
2018-09-24T10:13:06.745Z,12.90
2018-09-24T10:15:40.254Z,13.01
2018-09-24T10:18:13.816Z,13.02
2018-09-24T10:20:47.645Z,13.01
2018-09-24T10:23:21.225Z,12.99
2018-09-24T10:25:54.968Z,12.96
2018-09-24T10:28:28.649Z,12.82
2018-09-24T10:31:02.340Z,12.89
2018-09-24T10:33:35.968Z,13.11
2018-09-24T10:36:09.526Z,13.10
2018-09-24T10:38:43.073Z,13.16
2018-09-24T10:41:16.523Z,13.10
2018-09-24T10:43:50.014Z,13.18
2018-09-24T10:46:23.529Z,13.05
2018-09-24T10:48:57.311Z,13.14
2018-09-24T10:51:30.817Z,13.08
2018-09-24T10:54:06.090Z,13.27
2018-09-24T10:56:40.045Z,13.38
2018-09-24T10:59:13.673Z,13.54
2018-09-24T11:01:47.192Z,13.71
2018-09-24T11:04:21.307Z,13.55
2018-09-24T11:06:54.938Z,13.39
2018-09-24T11:09:28.564Z,13.40
2018-09-24T11:12:02.210Z,13.49
2018-09-24T11:14:35.972Z,13.61
2018-09-24T11:17:09.598Z,13.63
2018-09-24T11:19:43.240Z,13.85
2018-09-24T11:22:16.710Z,13.97
2018-09-24T11:24:50.319Z,13.95
2018-09-24T11:27:24.235Z,13.98
2018-09-24T11:29:58.036Z,13.91
2018-09-24T11:32:32.477Z,14.28
2018-09-24T11:35:06.050Z,14.27
2018-09-24T11:37:39.733Z,14.09
2018-09-24T11:40:13.364Z,13.95
2018-09-24T11:42:46.933Z,13.92
2018-09-24T11:45:20.331Z,13.62
2018-09-24T11:47:53.868Z,13.03
2018-09-24T11:50:27.652Z,12.48
2018-09-24T11:53:01.380Z,11.85
2018-09-24T11:55:34.941Z,11.76
2018-09-24T11:58:08.446Z,11.58
2018-09-24T12:00:42.178Z,11.47
2018-09-24T12:03:15.753Z,11.47
2018-09-24T12:05:49.250Z,11.23
2018-09-24T12:08:22.944Z,10.89
2018-09-24T12:18:05.554Z,10.70
2018-09-24T12:20:39.006Z,10.57
2018-09-24T12:23:12.499Z,10.68
2018-09-24T12:25:46.259Z,10.87
2018-09-24T12:28:19.840Z,10.77
2018-09-24T12:30:53.442Z,10.51
2018-09-24T12:33:27.122Z,9.99
2018-09-24T12:36:01.329Z,9.56
2018-09-24T12:38:35.077Z,9.38
2018-09-24T12:41:08.553Z,9.32
2018-09-24T12:43:42.850Z,9.14
2018-09-24T12:46:16.379Z,9.12
2018-09-24T12:48:50.080Z,9.04
2018-09-24T12:51:23.669Z,9.21
2018-09-24T12:53:57.376Z,9.51
2018-09-24T12:56:30.856Z,9.66
2018-09-24T12:59:04.885Z,9.88
2018-09-24T13:01:38.418Z,9.88
2018-09-24T13:04:12.127Z,9.83
2018-09-24T13:06:45.647Z,9.92
2018-09-24T13:09:19.213Z,10.04
2018-09-24T13:11:52.766Z,10.13
2018-09-24T13:14:26.693Z,10.43
2018-09-24T13:17:00.351Z,10.65
2018-09-24T13:19:34.553Z,10.92
2018-09-24T13:22:08.178Z,11.09
2018-09-24T13:24:43.482Z,11.28
2018-09-24T13:27:17.620Z,11.32
2018-09-24T13:29:51.492Z,11.45
2018-09-24T13:32:25.272Z,11.55
2018-09-24T13:34:58.758Z,11.59
2018-09-24T13:37:32.220Z,11.35
2018-09-24T13:40:05.894Z,11.02
2018-09-24T13:42:39.638Z,10.87
2018-09-24T13:45:13.127Z,10.78
2018-09-24T13:47:46.878Z,10.80
2018-09-24T13:50:20.633Z,10.83
2018-09-24T13:52:54.290Z,10.96
2018-09-24T13:55:27.920Z,11.15
2018-09-24T13:58:01.534Z,11.28
2018-09-24T14:00:35.002Z,11.34
2018-09-24T14:03:08.712Z,11.44
2018-09-24T14:05:42.419Z,11.40
2018-09-24T14:08:16.551Z,11.45
2018-09-24T14:10:50.128Z,11.54
2018-09-24T14:13:24.325Z,11.68
2018-09-24T14:15:58.042Z,11.86
2018-09-24T14:18:33.190Z,11.99
2018-09-24T14:21:07.349Z,12.03
2018-09-24T14:23:42.456Z,12.13
2018-09-24T14:26:16.555Z,12.07
2018-09-24T14:28:53.894Z,12.04
2018-09-24T14:31:27.585Z,11.94
2018-09-24T14:34:01.135Z,11.94
2018-09-24T14:36:34.843Z,11.93
2018-09-24T14:39:14.055Z,11.95
2018-09-24T14:41:48.786Z,12.12
2018-09-24T14:44:22.286Z,12.20
2018-09-24T14:46:55.780Z,12.32
2018-09-24T14:49:29.286Z,12.60
2018-09-24T14:52:04.310Z,12.96
2018-09-24T14:54:38.543Z,13.01
2018-09-24T14:57:12.141Z,13.07
2018-09-24T14:59:45.636Z,12.98
2018-09-24T15:02:20.326Z,12.76
2018-09-24T15:04:53.955Z,12.47
2018-09-24T15:07:27.564Z,12.08
2018-09-24T15:10:01.720Z,11.84
2018-09-24T15:12:36.889Z,11.67
2018-09-24T15:15:10.608Z,11.59
2018-09-24T15:17:44.126Z,11.24
2018-09-24T15:20:17.745Z,10.92
2018-09-24T15:22:51.725Z,10.75
2018-09-24T15:25:25.302Z,10.69
2018-09-24T15:27:59.248Z,10.60
2018-09-24T15:30:32.794Z,10.49
2018-09-24T15:33:07.255Z,10.43
2018-09-24T15:35:41.085Z,10.64
2018-09-24T15:38:14.591Z,10.71
2018-09-24T15:40:48.781Z,10.93
2018-09-24T15:43:22.514Z,11.01
2018-09-24T15:45:59.179Z,11.24
2018-09-24T15:48:32.812Z,11.37
2018-09-24T15:51:06.379Z,11.24
2018-09-24T15:53:42.971Z,11.28
2018-09-24T15:56:16.920Z,11.23
2018-09-24T15:58:50.476Z,11.16
2018-09-24T16:01:24.072Z,11.13
2018-09-24T16:03:57.671Z,11.13
2018-09-24T16:06:31.142Z,11.09
2018-09-24T16:09:05.005Z,11.12
2018-09-24T16:11:38.740Z,11.12
2018-09-24T16:14:12.486Z,11.08
2018-09-24T16:16:46.359Z,11.19
2018-09-24T16:19:20.248Z,11.27
2018-09-24T16:21:53.771Z,11.28
2018-09-24T16:24:28.257Z,11.21
2018-09-24T16:27:05.490Z,11.33
2018-09-24T16:29:38.991Z,11.32
2018-09-24T16:32:12.775Z,11.39
2018-09-24T16:34:46.442Z,11.34
2018-09-24T16:37:20.017Z,11.29
2018-09-24T16:39:53.505Z,11.34
2018-09-24T16:42:26.995Z,11.33
2018-09-24T16:45:00.708Z,11.37
2018-09-24T16:47:34.312Z,11.29
2018-09-24T16:50:10.614Z,11.36
2018-09-24T16:52:44.281Z,11.31
2018-09-24T16:55:17.932Z,11.29
2018-09-24T16:57:51.601Z,11.20
2018-09-24T17:00:25.419Z,11.12
2018-09-24T17:02:59.017Z,11.13
2018-09-24T17:05:32.743Z,11.05
2018-09-24T17:08:06.199Z,11.15
2018-09-24T17:10:39.737Z,11.05
2018-09-24T17:13:13.271Z,11.12
2018-09-24T17:15:48.070Z,11.15
2018-09-24T17:18:21.613Z,11.14
2018-09-24T17:20:55.536Z,11.16
2018-09-24T17:23:29.362Z,11.12
2018-09-24T17:26:03.245Z,11.11
2018-09-24T17:28:37.887Z,11.10
2018-09-24T17:31:11.505Z,11.13
2018-09-24T17:33:45.791Z,11.06
2018-09-24T17:36:19.771Z,11.10
2018-09-24T17:38:59.105Z,11.17
2018-09-24T17:41:32.755Z,11.16
2018-09-24T17:44:06.388Z,11.09
2018-09-24T17:46:40.065Z,11.08
2018-09-24T17:49:13.584Z,11.01
2018-09-24T17:51:50.109Z,10.99
2018-09-24T17:54:23.766Z,10.95
2018-09-24T17:56:57.276Z,10.83
2018-09-24T17:59:31.531Z,10.77
2018-09-24T18:02:05.043Z,10.86
2018-09-24T18:04:40.175Z,10.77
2018-09-24T18:07:13.682Z,10.85
2018-09-24T18:09:47.173Z,10.84
2018-09-24T18:12:20.857Z,10.80
2018-09-24T18:14:54.578Z,10.88
2018-09-24T18:17:28.626Z,10.85
2018-09-24T18:20:02.236Z,10.78
2018-09-24T18:22:36.329Z,10.74
2018-09-24T18:25:09.915Z,10.67
2018-09-24T18:27:43.536Z,10.66
2018-09-24T18:30:17.125Z,10.59
2018-09-24T18:32:50.620Z,10.67
2018-09-24T18:35:24.188Z,10.70
2018-09-24T18:37:57.826Z,10.70
2018-09-24T18:40:32.198Z,10.60
2018-09-24T18:43:05.996Z,10.54
2018-09-24T18:45:39.729Z,10.48
2018-09-24T18:48:17.617Z,10.43
2018-09-24T18:50:51.333Z,10.32
2018-09-24T18:53:25.687Z,10.31
2018-09-24T18:55:59.432Z,10.24
2018-09-24T18:58:33.016Z,10.23
2018-09-24T19:01:06.613Z,10.20
2018-09-24T19:03:40.153Z,10.15
2018-09-24T19:06:13.861Z,10.13
2018-09-24T19:08:47.532Z,10.07
2018-09-24T19:11:27.792Z,10.07
2018-09-24T19:13:55.321Z,10.11
2018-09-24T19:16:29.034Z,10.10
2018-09-24T19:19:03.317Z,10.03
2018-09-24T19:21:38.055Z,10.06
2018-09-24T19:24:11.721Z,10.05
2018-09-24T19:26:45.271Z,10.13
2018-09-24T19:29:18.830Z,9.97
2018-09-24T19:31:52.489Z,9.90
2018-09-24T19:34:26.237Z,9.92
2018-09-24T19:36:59.823Z,9.95
2018-09-24T19:39:33.566Z,9.95
2018-09-24T19:42:07.181Z,9.84
2018-09-24T19:44:41.500Z,9.90
2018-09-24T19:47:15.207Z,9.88
2018-09-24T19:49:49.116Z,9.79
2018-09-24T19:52:22.756Z,9.77
2018-09-24T19:54:57.364Z,9.74
2018-09-24T19:57:31.005Z,9.71
2018-09-24T20:00:04.617Z,9.70
2018-09-24T20:02:38.703Z,9.68
2018-09-24T20:05:14.091Z,9.64
2018-09-24T20:07:47.619Z,9.55
2018-09-24T20:10:21.289Z,9.55
2018-09-24T20:12:54.988Z,9.57
2018-09-24T20:15:28.893Z,9.52
2018-09-24T20:18:02.709Z,9.59
2018-09-24T20:20:36.632Z,9.50
2018-09-24T20:23:10.397Z,9.46
2018-09-24T20:25:44.282Z,9.40
2018-09-24T20:28:17.864Z,9.21
2018-09-24T20:30:51.321Z,9.35
2018-09-24T20:33:24.833Z,9.33
2018-09-24T20:35:59.076Z,9.41
2018-09-24T20:38:33.279Z,9.32
2018-09-24T20:41:07.494Z,9.29
2018-09-24T20:43:40.957Z,9.29
2018-09-24T20:46:14.637Z,9.22
2018-09-24T20:48:48.278Z,9.22
2018-09-24T20:51:21.903Z,9.25
2018-09-24T20:53:55.624Z,9.25
2018-09-24T20:56:29.320Z,9.15
2018-09-24T20:59:02.738Z,9.12
2018-09-24T21:01:36.406Z,9.14
2018-09-24T21:04:09.878Z,9.13
2018-09-24T21:06:43.375Z,9.10
2018-09-24T21:09:16.944Z,9.15
2018-09-24T21:11:50.502Z,9.12
2018-09-24T21:14:23.968Z,9.05
2018-09-24T21:16:57.464Z,9.08
2018-09-24T21:19:31.088Z,9.06
2018-09-24T21:22:05.890Z,9.05
2018-09-24T21:24:40.209Z,9.15
2018-09-24T21:27:15.619Z,9.15
2018-09-24T21:29:50.456Z,9.08
2018-09-24T21:32:24.116Z,9.15
2018-09-24T21:34:57.718Z,9.20
2018-09-24T21:37:31.396Z,9.17
2018-09-24T21:40:05.605Z,9.08
2018-09-24T21:42:39.139Z,8.97
2018-09-24T21:45:12.650Z,9.03
2018-09-24T21:47:46.930Z,8.91
2018-09-24T21:50:20.448Z,8.84
2018-09-24T21:52:53.984Z,8.90
2018-09-24T21:55:27.637Z,8.93
2018-09-24T21:58:01.126Z,8.87
2018-09-24T22:00:34.833Z,8.81
2018-09-24T22:03:08.496Z,8.76
2018-09-24T22:05:42.029Z,8.78
2018-09-24T22:08:15.551Z,8.74
2018-09-24T22:10:49.011Z,8.74
2018-09-24T22:13:22.613Z,8.69
2018-09-24T22:15:56.137Z,8.55
2018-09-24T22:18:29.650Z,8.61
2018-09-24T22:21:03.335Z,8.63
2018-09-24T22:23:37.005Z,8.59
2018-09-24T22:26:10.618Z,8.62
2018-09-24T22:28:44.156Z,8.55
2018-09-24T22:31:17.634Z,8.52
2018-09-24T22:33:51.271Z,8.44
2018-09-24T22:36:24.767Z,8.42
2018-09-24T22:38:58.252Z,8.51
2018-09-24T22:41:31.748Z,8.50
2018-09-24T22:44:05.343Z,8.47
2018-09-24T22:46:39.913Z,8.44
2018-09-24T22:49:13.491Z,8.34
2018-09-24T22:51:46.983Z,8.29
2018-09-24T22:54:20.608Z,8.28
2018-09-24T22:56:54.223Z,8.40
2018-09-24T22:59:27.764Z,8.37
2018-09-24T23:02:01.283Z,8.31
2018-09-24T23:04:35.718Z,8.20
2018-09-24T23:07:09.382Z,8.20
2018-09-24T23:09:46.286Z,8.20
2018-09-24T23:12:19.799Z,8.19
2018-09-24T23:14:53.322Z,8.22
2018-09-24T23:17:26.822Z,8.21
2018-09-24T23:20:00.333Z,8.16
2018-09-24T23:22:33.799Z,8.13
2018-09-24T23:25:07.363Z,8.21
2018-09-24T23:27:40.868Z,8.14
2018-09-24T23:30:14.373Z,8.14
2018-09-24T23:32:47.831Z,8.13
2018-09-24T23:35:21.387Z,8.07
2018-09-24T23:37:54.966Z,8.08
2018-09-24T23:40:28.452Z,8.05
2018-09-24T23:43:01.921Z,8.10
2018-09-24T23:45:35.404Z,7.99
2018-09-24T23:48:08.974Z,7.94
2018-09-24T23:50:42.468Z,7.95
2018-09-24T23:53:16.217Z,7.90
2018-09-24T23:55:49.954Z,7.92
2018-09-24T23:58:23.526Z,7.91
